KBGE/BGE METAR and TAF weather

Enter ICAO airport designator
Station Type Date Time Source
KBGE METAR 2018/07/16 23:55 UTC NOAA

KBGE 162355Z AUTO 15003KT 10SM SCT007 25/22 A3002 RMK AO2


Station Type Date Time Source
KBGE Decoded METAR 2018/07/16 23:55 UTC NOAA

Bainbridge, Decatur County Industrial Air Park Airport, GA, United States (KBGE) 30-58N 084-38W
Jul 16, 2018 - 07:55 PM EDT / 2018.07.16 2355 UTC
Wind: from the SSE (150 degrees) at 3 MPH (3 KT):0
Visibility: 10 mile(s):0
Sky conditions: partly cloudy
Temperature: 77 F (25 C)
Dew Point: 71 F (22 C)
Relative Humidity: 83%
Pressure (altimeter): 30.02 in. Hg (1016 hPa)
ob: KBGE 162355Z AUTO 15003KT 10SM SCT007 25/22 A3002 RMK AO2
cycle: 0

Station Type Date Time Source
KBGE TAF UTC NOAA

Error!


Example: see airport list